sensor_id;sensor_type;location;lat;lon;timestamp;temperature;humidity
39347;DHT22;26262;49.836;6.632;2022-12-16T00:01:19;-6.70;99.90
39347;DHT22;26262;49.836;6.632;2022-12-16T00:03:51;-6.90;99.90
39347;DHT22;26262;49.836;6.632;2022-12-16T00:06:17;-6.80;99.90
39347;DHT22;26262;49.836;6.632;2022-12-16T00:08:43;-6.80;99.90
39347;DHT22;26262;49.836;6.632;2022-12-16T00:11:09;-6.70;99.90
39347;DHT22;26262;49.836;6.632;2022-12-16T00:13:36;-6.70;99.90
39347;DHT22;26262;49.836;6.632;2022-12-16T00:16:06;-6.70;99.90
39347;DHT22;26262;49.836;6.632;2022-12-16T00:18:32;-6.60;99.90
39347;DHT22;26262;49.836;6.632;2022-12-16T00:20:58;-6.60;99.90
39347;DHT22;26262;49.836;6.632;2022-12-16T00:23:24;-6.60;99.90
39347;DHT22;26262;49.836;6.632;2022-12-16T00:25:50;-6.90;99.90
39347;DHT22;26262;49.836;6.632;2022-12-16T00:28:16;-6.80;99.90
39347;DHT22;26262;49.836;6.632;2022-12-16T00:30:43;-6.80;99.90
39347;DHT22;26262;49.836;6.632;2022-12-16T00:33:09;-6.80;99.90
39347;DHT22;26262;49.836;6.632;2022-12-16T00:35:35;-6.80;99.90
39347;DHT22;26262;49.836;6.632;2022-12-16T00:38:00;-6.70;99.90
39347;DHT22;26262;49.836;6.632;2022-12-16T00:40:26;-6.70;99.90
39347;DHT22;26262;49.836;6.632;2022-12-16T00:42:52;-6.70;99.90
39347;DHT22;26262;49.836;6.632;2022-12-16T00:45:18;-6.90;99.90
39347;DHT22;26262;49.836;6.632;2022-12-16T00:47:44;-7.00;99.90
39347;DHT22;26262;49.836;6.632;2022-12-16T00:50:09;-6.90;99.90
39347;DHT22;26262;49.836;6.632;2022-12-16T00:52:35;-6.90;99.90
39347;DHT22;26262;49.836;6.632;2022-12-16T00:55:01;-6.90;99.90
39347;DHT22;26262;49.836;6.632;2022-12-16T00:57:27;-6.90;99.90
39347;DHT22;26262;49.836;6.632;2022-12-16T00:59:52;-6.90;99.90
39347;DHT22;26262;49.836;6.632;2022-12-16T01:02:18;-6.90;99.90
39347;DHT22;26262;49.836;6.632;2022-12-16T01:04:43;-6.90;99.90
39347;DHT22;26262;49.836;6.632;2022-12-16T01:07:09;-7.10;99.90
39347;DHT22;26262;49.836;6.632;2022-12-16T01:09:35;-7.00;99.90
39347;DHT22;26262;49.836;6.632;2022-12-16T01:12:01;-7.00;99.90
39347;DHT22;26262;49.836;6.632;2022-12-16T01:14:26;-7.00;99.90
39347;DHT22;26262;49.836;6.632;2022-12-16T01:16:52;-6.90;99.90
39347;DHT22;26262;49.836;6.632;2022-12-16T01:19:17;-6.90;99.90
39347;DHT22;26262;49.836;6.632;2022-12-16T01:21:43;-6.90;99.90
39347;DHT22;26262;49.836;6.632;2022-12-16T01:24:09;-6.90;99.90
39347;DHT22;26262;49.836;6.632;2022-12-16T01:26:35;-6.90;99.90
39347;DHT22;26262;49.836;6.632;2022-12-16T01:29:01;-6.90;99.90
39347;DHT22;26262;49.836;6.632;2022-12-16T01:31:26;-6.90;99.90
39347;DHT22;26262;49.836;6.632;2022-12-16T01:33:52;-6.90;99.90
39347;DHT22;26262;49.836;6.632;2022-12-16T01:36:18;-7.00;99.90
39347;DHT22;26262;49.836;6.632;2022-12-16T01:38:44;-6.90;99.90
39347;DHT22;26262;49.836;6.632;2022-12-16T01:41:12;-6.90;99.90
39347;DHT22;26262;49.836;6.632;2022-12-16T01:43:39;-6.90;99.90
39347;DHT22;26262;49.836;6.632;2022-12-16T01:48:50;-7.00;99.90
39347;DHT22;26262;49.836;6.632;2022-12-16T01:51:38;-7.00;99.90
39347;DHT22;26262;49.836;6.632;2022-12-16T01:54:23;-7.00;99.90
39347;DHT22;26262;49.836;6.632;2022-12-16T01:56:53;-7.00;99.90
39347;DHT22;26262;49.836;6.632;2022-12-16T01:59:21;-7.00;99.90
39347;DHT22;26262;49.836;6.632;2022-12-16T02:01:47;-7.10;99.90
39347;DHT22;26262;49.836;6.632;2022-12-16T02:04:13;-7.00;99.90
39347;DHT22;26262;49.836;6.632;2022-12-16T02:06:38;-7.10;99.90
39347;DHT22;26262;49.836;6.632;2022-12-16T02:09:06;-7.10;99.90
39347;DHT22;26262;49.836;6.632;2022-12-16T02:12:26;-7.10;99.90
39347;DHT22;26262;49.836;6.632;2022-12-16T02:17:28;-7.20;99.90
39347;DHT22;26262;49.836;6.632;2022-12-16T02:26:40;-7.40;99.90
39347;DHT22;26262;49.836;6.632;2022-12-16T02:35:46;-7.30;99.90
39347;DHT22;26262;49.836;6.632;2022-12-16T02:40:52;-7.30;99.90
39347;DHT22;26262;49.836;6.632;2022-12-16T02:43:34;-7.30;99.90
39347;DHT22;26262;49.836;6.632;2022-12-16T02:46:07;-7.30;99.90
39347;DHT22;26262;49.836;6.632;2022-12-16T02:48:33;-7.40;99.90
39347;DHT22;26262;49.836;6.632;2022-12-16T02:50:58;-7.50;99.90
39347;DHT22;26262;49.836;6.632;2022-12-16T02:53:24;-7.60;99.90
39347;DHT22;26262;49.836;6.632;2022-12-16T02:58:51;-7.50;99.90
39347;DHT22;26262;49.836;6.632;2022-12-16T03:01:29;-7.60;99.90
39347;DHT22;26262;49.836;6.632;2022-12-16T03:04:12;-7.60;99.90
39347;DHT22;26262;49.836;6.632;2022-12-16T03:06:42;-7.50;99.90
39347;DHT22;26262;49.836;6.632;2022-12-16T03:09:11;-7.50;99.90
39347;DHT22;26262;49.836;6.632;2022-12-16T03:11:40;-7.50;99.90
39347;DHT22;26262;49.836;6.632;2022-12-16T03:14:09;-7.50;99.90
39347;DHT22;26262;49.836;6.632;2022-12-16T03:16:37;-7.50;99.90
39347;DHT22;26262;49.836;6.632;2022-12-16T03:19:06;-7.50;99.90
39347;DHT22;26262;49.836;6.632;2022-12-16T03:21:38;-7.50;99.90
39347;DHT22;26262;49.836;6.632;2022-12-16T03:24:09;-7.50;99.90
39347;DHT22;26262;49.836;6.632;2022-12-16T03:26:52;-7.50;99.90
39347;DHT22;26262;49.836;6.632;2022-12-16T03:29:47;-7.50;99.90
39347;DHT22;26262;49.836;6.632;2022-12-16T03:35:15;-7.60;99.90
39347;DHT22;26262;49.836;6.632;2022-12-16T03:37:45;-7.60;99.90
39347;DHT22;26262;49.836;6.632;2022-12-16T03:40:12;-7.60;99.90
39347;DHT22;26262;49.836;6.632;2022-12-16T03:42:40;-7.60;99.90
39347;DHT22;26262;49.836;6.632;2022-12-16T03:45:10;-7.60;99.90
39347;DHT22;26262;49.836;6.632;2022-12-16T03:47:37;-7.50;99.90
39347;DHT22;26262;49.836;6.632;2022-12-16T03:50:02;-7.60;99.90
39347;DHT22;26262;49.836;6.632;2022-12-16T03:52:28;-7.60;99.90
39347;DHT22;26262;49.836;6.632;2022-12-16T03:54:54;-7.50;99.90
39347;DHT22;26262;49.836;6.632;2022-12-16T03:57:19;-7.60;99.90
39347;DHT22;26262;49.836;6.632;2022-12-16T03:59:45;-7.50;99.90
39347;DHT22;26262;49.836;6.632;2022-12-16T04:02:10;-7.60;99.90
39347;DHT22;26262;49.836;6.632;2022-12-16T04:04:36;-7.60;99.90
39347;DHT22;26262;49.836;6.632;2022-12-16T04:07:01;-7.60;99.90
39347;DHT22;26262;49.836;6.632;2022-12-16T04:09:48;-7.60;99.90
39347;DHT22;26262;49.836;6.632;2022-12-16T04:12:13;-7.60;99.90
39347;DHT22;26262;49.836;6.632;2022-12-16T04:14:57;-7.60;99.90
39347;DHT22;26262;49.836;6.632;2022-12-16T04:17:42;-7.60;99.90
39347;DHT22;26262;49.836;6.632;2022-12-16T04:20:30;-7.60;99.90
39347;DHT22;26262;49.836;6.632;2022-12-16T04:23:15;-7.60;99.90
39347;DHT22;26262;49.836;6.632;2022-12-16T04:26:00;-7.60;99.90
39347;DHT22;26262;49.836;6.632;2022-12-16T04:28:25;-7.60;99.90
39347;DHT22;26262;49.836;6.632;2022-12-16T04:30:51;-7.60;99.90
39347;DHT22;26262;49.836;6.632;2022-12-16T04:33:16;-7.70;99.90
39347;DHT22;26262;49.836;6.632;2022-12-16T04:36:01;-7.70;99.90
39347;DHT22;26262;49.836;6.632;2022-12-16T04:38:45;-7.70;99.90
39347;DHT22;26262;49.836;6.632;2022-12-16T04:41:29;-7.70;99.90
39347;DHT22;26262;49.836;6.632;2022-12-16T04:44:13;-7.70;99.90
39347;DHT22;26262;49.836;6.632;2022-12-16T04:46:57;-7.70;99.90
39347;DHT22;26262;49.836;6.632;2022-12-16T04:49:41;-7.70;99.90
39347;DHT22;26262;49.836;6.632;2022-12-16T04:52:25;-7.70;99.90
39347;DHT22;26262;49.836;6.632;2022-12-16T04:55:10;-7.70;99.90
39347;DHT22;26262;49.836;6.632;2022-12-16T04:57:56;-7.80;99.90
39347;DHT22;26262;49.836;6.632;2022-12-16T05:00:41;-7.70;99.90
39347;DHT22;26262;49.836;6.632;2022-12-16T05:03:26;-7.80;99.90
39347;DHT22;26262;49.836;6.632;2022-12-16T05:06:11;-7.80;99.90
39347;DHT22;26262;49.836;6.632;2022-12-16T05:08:55;-7.80;99.90
39347;DHT22;26262;49.836;6.632;2022-12-16T05:11:56;-7.80;99.90
39347;DHT22;26262;49.836;6.632;2022-12-16T05:14:40;-7.80;99.90
39347;DHT22;26262;49.836;6.632;2022-12-16T05:17:24;-7.90;99.90
39347;DHT22;26262;49.836;6.632;2022-12-16T05:20:08;-7.90;99.90
39347;DHT22;26262;49.836;6.632;2022-12-16T05:22:56;-7.90;99.90
39347;DHT22;26262;49.836;6.632;2022-12-16T05:25:40;-7.90;99.90
39347;DHT22;26262;49.836;6.632;2022-12-16T05:28:24;-7.90;99.90
39347;DHT22;26262;49.836;6.632;2022-12-16T05:31:08;-7.90;99.90
39347;DHT22;26262;49.836;6.632;2022-12-16T05:33:52;-7.90;99.90
39347;DHT22;26262;49.836;6.632;2022-12-16T05:36:36;-7.90;99.90
39347;DHT22;26262;49.836;6.632;2022-12-16T05:39:20;-7.90;99.90
39347;DHT22;26262;49.836;6.632;2022-12-16T05:42:04;-8.00;99.90
39347;DHT22;26262;49.836;6.632;2022-12-16T05:44:48;-8.00;99.90
39347;DHT22;26262;49.836;6.632;2022-12-16T05:47:32;-8.00;99.90
39347;DHT22;26262;49.836;6.632;2022-12-16T05:50:16;-8.00;99.90
39347;DHT22;26262;49.836;6.632;2022-12-16T05:53:00;-8.10;99.90
39347;DHT22;26262;49.836;6.632;2022-12-16T05:55:44;-8.10;99.90
39347;DHT22;26262;49.836;6.632;2022-12-16T05:58:29;-8.00;99.90
39347;DHT22;26262;49.836;6.632;2022-12-16T06:01:13;-8.10;99.90
39347;DHT22;26262;49.836;6.632;2022-12-16T06:03:57;-8.10;99.90
39347;DHT22;26262;49.836;6.632;2022-12-16T06:06:41;-8.10;99.90
39347;DHT22;26262;49.836;6.632;2022-12-16T06:09:25;-8.20;99.90
39347;DHT22;26262;49.836;6.632;2022-12-16T06:12:09;-8.20;99.90
39347;DHT22;26262;49.836;6.632;2022-12-16T06:14:54;-8.20;99.90
39347;DHT22;26262;49.836;6.632;2022-12-16T06:17:41;-8.20;99.90
39347;DHT22;26262;49.836;6.632;2022-12-16T06:20:26;-8.10;99.90
39347;DHT22;26262;49.836;6.632;2022-12-16T06:23:10;-8.10;99.90
39347;DHT22;26262;49.836;6.632;2022-12-16T06:25:55;-8.10;99.90
39347;DHT22;26262;49.836;6.632;2022-12-16T06:28:39;-8.10;99.90
39347;DHT22;26262;49.836;6.632;2022-12-16T06:31:23;-8.10;99.90
39347;DHT22;26262;49.836;6.632;2022-12-16T06:34:07;-8.20;99.90
39347;DHT22;26262;49.836;6.632;2022-12-16T06:36:51;-8.10;99.90
39347;DHT22;26262;49.836;6.632;2022-12-16T06:39:35;-8.50;99.90
39347;DHT22;26262;49.836;6.632;2022-12-16T06:42:19;-8.60;99.90
39347;DHT22;26262;49.836;6.632;2022-12-16T06:45:03;-8.50;99.90
39347;DHT22;26262;49.836;6.632;2022-12-16T06:47:47;-8.40;99.90
39347;DHT22;26262;49.836;6.632;2022-12-16T06:50:31;-8.40;99.90
39347;DHT22;26262;49.836;6.632;2022-12-16T06:53:15;-8.40;99.90
39347;DHT22;26262;49.836;6.632;2022-12-16T06:55:59;-8.30;99.90
39347;DHT22;26262;49.836;6.632;2022-12-16T06:58:43;-8.30;99.90
39347;DHT22;26262;49.836;6.632;2022-12-16T07:01:27;-8.20;99.90
39347;DHT22;26262;49.836;6.632;2022-12-16T07:04:15;-8.20;99.90
39347;DHT22;26262;49.836;6.632;2022-12-16T07:07:00;-8.30;99.90
39347;DHT22;26262;49.836;6.632;2022-12-16T07:09:44;-8.30;99.90
39347;DHT22;26262;49.836;6.632;2022-12-16T07:12:28;-8.30;99.90
39347;DHT22;26262;49.836;6.632;2022-12-16T07:15:12;-8.30;99.90
39347;DHT22;26262;49.836;6.632;2022-12-16T07:17:56;-8.20;99.90
39347;DHT22;26262;49.836;6.632;2022-12-16T07:20:40;-8.20;99.90
39347;DHT22;26262;49.836;6.632;2022-12-16T07:23:24;-8.30;99.90
39347;DHT22;26262;49.836;6.632;2022-12-16T07:26:08;-8.30;99.90
39347;DHT22;26262;49.836;6.632;2022-12-16T07:28:53;-8.30;99.90
39347;DHT22;26262;49.836;6.632;2022-12-16T07:31:37;-8.30;99.90
39347;DHT22;26262;49.836;6.632;2022-12-16T07:34:22;-8.40;99.90
39347;DHT22;26262;49.836;6.632;2022-12-16T07:37:06;-8.30;99.90
39347;DHT22;26262;49.836;6.632;2022-12-16T07:39:50;-8.30;99.90
39347;DHT22;26262;49.836;6.632;2022-12-16T07:42:34;-8.30;99.90
39347;DHT22;26262;49.836;6.632;2022-12-16T07:45:18;-8.40;99.90
39347;DHT22;26262;49.836;6.632;2022-12-16T07:48:02;-8.30;99.90
39347;DHT22;26262;49.836;6.632;2022-12-16T07:50:46;-8.30;99.90
39347;DHT22;26262;49.836;6.632;2022-12-16T07:53:30;-8.30;99.90
39347;DHT22;26262;49.836;6.632;2022-12-16T07:56:14;-8.30;99.90
39347;DHT22;26262;49.836;6.632;2022-12-16T07:58:58;-8.30;99.90
39347;DHT22;26262;49.836;6.632;2022-12-16T08:01:42;-8.40;99.90
39347;DHT22;26262;49.836;6.632;2022-12-16T08:04:26;-8.40;99.90
39347;DHT22;26262;49.836;6.632;2022-12-16T08:07:10;-8.40;99.90
39347;DHT22;26262;49.836;6.632;2022-12-16T08:09:54;-8.40;99.90
39347;DHT22;26262;49.836;6.632;2022-12-16T08:12:38;-8.30;99.90
39347;DHT22;26262;49.836;6.632;2022-12-16T08:15:23;-8.30;99.90
39347;DHT22;26262;49.836;6.632;2022-12-16T08:18:07;-8.30;99.90
39347;DHT22;26262;49.836;6.632;2022-12-16T08:20:51;-8.30;99.90
39347;DHT22;26262;49.836;6.632;2022-12-16T08:23:35;-8.20;99.90
39347;DHT22;26262;49.836;6.632;2022-12-16T08:26:19;-8.20;99.90
39347;DHT22;26262;49.836;6.632;2022-12-16T08:29:03;-8.20;99.90
39347;DHT22;26262;49.836;6.632;2022-12-16T08:31:48;-8.30;99.90
39347;DHT22;26262;49.836;6.632;2022-12-16T08:34:32;-8.20;99.90
39347;DHT22;26262;49.836;6.632;2022-12-16T08:37:16;-8.20;99.90
39347;DHT22;26262;49.836;6.632;2022-12-16T08:40:00;-8.40;99.90
39347;DHT22;26262;49.836;6.632;2022-12-16T08:42:44;-8.30;99.90
39347;DHT22;26262;49.836;6.632;2022-12-16T08:45:28;-8.30;99.90
39347;DHT22;26262;49.836;6.632;2022-12-16T08:48:12;-8.20;99.90
39347;DHT22;26262;49.836;6.632;2022-12-16T08:51:00;-8.30;99.90
39347;DHT22;26262;49.836;6.632;2022-12-16T08:53:45;-8.20;99.90
39347;DHT22;26262;49.836;6.632;2022-12-16T08:56:29;-8.20;99.90
39347;DHT22;26262;49.836;6.632;2022-12-16T08:59:13;-8.30;99.90
39347;DHT22;26262;49.836;6.632;2022-12-16T09:01:57;-8.40;99.90
39347;DHT22;26262;49.836;6.632;2022-12-16T09:04:41;-8.70;99.90
39347;DHT22;26262;49.836;6.632;2022-12-16T09:07:25;-8.70;99.90
39347;DHT22;26262;49.836;6.632;2022-12-16T09:10:09;-8.50;99.90
39347;DHT22;26262;49.836;6.632;2022-12-16T09:12:53;-8.60;99.90
39347;DHT22;26262;49.836;6.632;2022-12-16T09:15:37;-8.50;99.90
39347;DHT22;26262;49.836;6.632;2022-12-16T09:18:21;-8.40;99.90
39347;DHT22;26262;49.836;6.632;2022-12-16T09:21:05;-8.30;99.90
39347;DHT22;26262;49.836;6.632;2022-12-16T09:23:48;-8.20;99.90
39347;DHT22;26262;49.836;6.632;2022-12-16T09:26:32;-8.20;99.90
39347;DHT22;26262;49.836;6.632;2022-12-16T09:29:16;-8.10;99.90
39347;DHT22;26262;49.836;6.632;2022-12-16T09:32:00;-8.10;99.90
39347;DHT22;26262;49.836;6.632;2022-12-16T09:34:44;-8.10;99.90
39347;DHT22;26262;49.836;6.632;2022-12-16T09:37:28;-8.00;99.90
39347;DHT22;26262;49.836;6.632;2022-12-16T09:40:14;-8.00;99.90
39347;DHT22;26262;49.836;6.632;2022-12-16T09:43:09;-8.00;99.90
39347;DHT22;26262;49.836;6.632;2022-12-16T09:52:21;-7.90;99.90
39347;DHT22;26262;49.836;6.632;2022-12-16T09:55:20;-7.80;99.90
39347;DHT22;26262;49.836;6.632;2022-12-16T09:58:06;-7.80;99.90
39347;DHT22;26262;49.836;6.632;2022-12-16T10:00:50;-7.80;99.90
39347;DHT22;26262;49.836;6.632;2022-12-16T10:03:38;-7.90;99.90
39347;DHT22;26262;49.836;6.632;2022-12-16T10:06:41;-7.90;99.90
39347;DHT22;26262;49.836;6.632;2022-12-16T10:12:55;-7.90;99.90
39347;DHT22;26262;49.836;6.632;2022-12-16T10:16:09;-7.90;99.90
39347;DHT22;26262;49.836;6.632;2022-12-16T10:22:34;-7.80;99.90
39347;DHT22;26262;49.836;6.632;2022-12-16T10:25:26;-7.80;99.90
39347;DHT22;26262;49.836;6.632;2022-12-16T10:28:16;-7.90;99.90
39347;DHT22;26262;49.836;6.632;2022-12-16T10:31:04;-7.80;99.90
39347;DHT22;26262;49.836;6.632;2022-12-16T10:33:54;-7.80;99.90
39347;DHT22;26262;49.836;6.632;2022-12-16T10:36:38;-7.70;99.90
39347;DHT22;26262;49.836;6.632;2022-12-16T10:39:31;-7.70;99.90
39347;DHT22;26262;49.836;6.632;2022-12-16T10:42:23;-7.70;99.90
39347;DHT22;26262;49.836;6.632;2022-12-16T10:45:34;-7.70;99.90
39347;DHT22;26262;49.836;6.632;2022-12-16T10:48:23;-7.60;99.90
39347;DHT22;26262;49.836;6.632;2022-12-16T10:51:12;-7.60;99.90
39347;DHT22;26262;49.836;6.632;2022-12-16T10:54:23;-7.50;99.90
39347;DHT22;26262;49.836;6.632;2022-12-16T11:03:27;-7.50;99.90
39347;DHT22;26262;49.836;6.632;2022-12-16T11:06:16;-7.40;99.90
39347;DHT22;26262;49.836;6.632;2022-12-16T11:12:26;-7.40;99.90
39347;DHT22;26262;49.836;6.632;2022-12-16T11:15:31;-7.40;99.90
39347;DHT22;26262;49.836;6.632;2022-12-16T11:18:18;-7.30;99.90
39347;DHT22;26262;49.836;6.632;2022-12-16T11:21:19;-7.40;99.90
39347;DHT22;26262;49.836;6.632;2022-12-16T11:24:18;-7.30;99.90
39347;DHT22;26262;49.836;6.632;2022-12-16T11:27:14;-7.20;99.90
39347;DHT22;26262;49.836;6.632;2022-12-16T11:30:21;-7.10;99.90
39347;DHT22;26262;49.836;6.632;2022-12-16T11:33:11;-7.10;99.90
39347;DHT22;26262;49.836;6.632;2022-12-16T11:38:58;-6.90;99.90
39347;DHT22;26262;49.836;6.632;2022-12-16T11:41:46;-7.00;99.90
39347;DHT22;26262;49.836;6.632;2022-12-16T11:44:42;-6.90;99.90
39347;DHT22;26262;49.836;6.632;2022-12-16T11:50:26;-6.90;99.90
39347;DHT22;26262;49.836;6.632;2022-12-16T11:56:21;-6.80;99.90
39347;DHT22;26262;49.836;6.632;2022-12-16T12:02:17;-6.80;99.90
39347;DHT22;26262;49.836;6.632;2022-12-16T12:05:02;-6.80;99.90
39347;DHT22;26262;49.836;6.632;2022-12-16T12:08:09;-6.80;99.90
39347;DHT22;26262;49.836;6.632;2022-12-16T12:11:26;-6.70;99.90
39347;DHT22;26262;49.836;6.632;2022-12-16T12:14:28;-6.70;99.90
39347;DHT22;26262;49.836;6.632;2022-12-16T12:26:17;-6.40;99.90
39347;DHT22;26262;49.836;6.632;2022-12-16T12:29:18;-6.40;99.90
39347;DHT22;26262;49.836;6.632;2022-12-16T12:32:22;-6.30;99.90
39347;DHT22;26262;49.836;6.632;2022-12-16T12:47:25;-6.10;99.90
39347;DHT22;26262;49.836;6.632;2022-12-16T12:50:47;-5.90;99.90
39347;DHT22;26262;49.836;6.632;2022-12-16T12:53:43;-6.00;99.90
39347;DHT22;26262;49.836;6.632;2022-12-16T12:56:47;-5.90;99.90
39347;DHT22;26262;49.836;6.632;2022-12-16T13:03:12;-5.80;99.90
39347;DHT22;26262;49.836;6.632;2022-12-16T13:05:47;-5.80;99.90
39347;DHT22;26262;49.836;6.632;2022-12-16T13:08:40;-5.70;99.90
39347;DHT22;26262;49.836;6.632;2022-12-16T13:11:25;-5.70;99.90
39347;DHT22;26262;49.836;6.632;2022-12-16T13:17:15;-5.60;99.90
39347;DHT22;26262;49.836;6.632;2022-12-16T13:20:00;-5.60;99.90
39347;DHT22;26262;49.836;6.632;2022-12-16T13:22:45;-5.50;99.90
39347;DHT22;26262;49.836;6.632;2022-12-16T13:28:25;-5.40;99.90
39347;DHT22;26262;49.836;6.632;2022-12-16T13:31:10;-5.40;99.90
39347;DHT22;26262;49.836;6.632;2022-12-16T13:33:58;-5.30;99.90
39347;DHT22;26262;49.836;6.632;2022-12-16T13:36:44;-5.30;99.90
39347;DHT22;26262;49.836;6.632;2022-12-16T13:39:35;-5.30;99.90
39347;DHT22;26262;49.836;6.632;2022-12-16T13:45:27;-5.30;99.90
39347;DHT22;26262;49.836;6.632;2022-12-16T13:48:31;-5.30;99.90
39347;DHT22;26262;49.836;6.632;2022-12-16T13:54:32;-5.30;99.90
39347;DHT22;26262;49.836;6.632;2022-12-16T13:57:20;-5.40;99.90
39347;DHT22;26262;49.836;6.632;2022-12-16T14:00:14;-5.40;99.90
39347;DHT22;26262;49.836;6.632;2022-12-16T14:03:02;-5.40;99.90
39347;DHT22;26262;49.836;6.632;2022-12-16T14:05:47;-5.30;99.90
39347;DHT22;26262;49.836;6.632;2022-12-16T14:08:35;-5.30;99.90
39347;DHT22;26262;49.836;6.632;2022-12-16T14:11:22;-5.30;99.90
39347;DHT22;26262;49.836;6.632;2022-12-16T14:14:31;-5.30;99.90
39347;DHT22;26262;49.836;6.632;2022-12-16T14:17:23;-5.30;99.90
39347;DHT22;26262;49.836;6.632;2022-12-16T14:20:16;-5.30;99.90
39347;DHT22;26262;49.836;6.632;2022-12-16T14:23:35;-5.40;99.90
39347;DHT22;26262;49.836;6.632;2022-12-16T14:26:21;-5.30;99.90
39347;DHT22;26262;49.836;6.632;2022-12-16T14:29:18;-5.30;99.90
39347;DHT22;26262;49.836;6.632;2022-12-16T14:32:26;-5.30;99.90
39347;DHT22;26262;49.836;6.632;2022-12-16T14:35:17;-5.20;99.90
39347;DHT22;26262;49.836;6.632;2022-12-16T14:38:24;-5.20;99.90
39347;DHT22;26262;49.836;6.632;2022-12-16T14:41:28;-5.20;99.90
39347;DHT22;26262;49.836;6.632;2022-12-16T14:44:21;-5.30;99.90
39347;DHT22;26262;49.836;6.632;2022-12-16T14:47:10;-5.20;99.90
39347;DHT22;26262;49.836;6.632;2022-12-16T14:49:58;-5.20;99.90
39347;DHT22;26262;49.836;6.632;2022-12-16T14:52:42;-5.20;99.90
39347;DHT22;26262;49.836;6.632;2022-12-16T14:55:32;-5.20;99.90
39347;DHT22;26262;49.836;6.632;2022-12-16T14:58:19;-5.10;99.90
39347;DHT22;26262;49.836;6.632;2022-12-16T15:01:06;-5.20;99.90
39347;DHT22;26262;49.836;6.632;2022-12-16T15:03:53;-5.20;99.90
39347;DHT22;26262;49.836;6.632;2022-12-16T15:06:43;-5.20;99.90
39347;DHT22;26262;49.836;6.632;2022-12-16T15:09:33;-5.30;99.90
39347;DHT22;26262;49.836;6.632;2022-12-16T15:12:21;-5.30;99.90
39347;DHT22;26262;49.836;6.632;2022-12-16T15:15:12;-5.50;99.90
39347;DHT22;26262;49.836;6.632;2022-12-16T15:17:57;-5.50;99.90
39347;DHT22;26262;49.836;6.632;2022-12-16T15:20:53;-5.50;99.90
39347;DHT22;26262;49.836;6.632;2022-12-16T15:23:43;-5.50;99.90
39347;DHT22;26262;49.836;6.632;2022-12-16T15:26:30;-5.30;99.90
39347;DHT22;26262;49.836;6.632;2022-12-16T15:29:39;-5.30;99.90
39347;DHT22;26262;49.836;6.632;2022-12-16T15:35:33;-5.30;99.90
39347;DHT22;26262;49.836;6.632;2022-12-16T15:41:19;-5.30;99.90
39347;DHT22;26262;49.836;6.632;2022-12-16T15:44:04;-5.30;99.90
39347;DHT22;26262;49.836;6.632;2022-12-16T15:46:48;-5.30;99.90
39347;DHT22;26262;49.836;6.632;2022-12-16T15:49:37;-5.30;99.90
39347;DHT22;26262;49.836;6.632;2022-12-16T15:52:41;-5.30;99.90
39347;DHT22;26262;49.836;6.632;2022-12-16T15:55:30;-5.30;99.90
39347;DHT22;26262;49.836;6.632;2022-12-16T15:58:32;-5.30;99.90
39347;DHT22;26262;49.836;6.632;2022-12-16T16:01:26;-5.30;99.90
39347;DHT22;26262;49.836;6.632;2022-12-16T16:04:17;-5.40;99.90
39347;DHT22;26262;49.836;6.632;2022-12-16T16:07:02;-5.40;99.90
39347;DHT22;26262;49.836;6.632;2022-12-16T16:09:46;-5.50;99.90
39347;DHT22;26262;49.836;6.632;2022-12-16T16:12:30;-5.50;99.90
39347;DHT22;26262;49.836;6.632;2022-12-16T16:15:14;-5.50;99.90
39347;DHT22;26262;49.836;6.632;2022-12-16T16:18:02;-5.50;99.90
39347;DHT22;26262;49.836;6.632;2022-12-16T16:20:47;-5.60;99.90
39347;DHT22;26262;49.836;6.632;2022-12-16T16:23:32;-5.60;99.90
39347;DHT22;26262;49.836;6.632;2022-12-16T16:26:19;-5.60;99.90
39347;DHT22;26262;49.836;6.632;2022-12-16T16:29:04;-5.70;99.90
39347;DHT22;26262;49.836;6.632;2022-12-16T16:31:48;-5.80;99.90
39347;DHT22;26262;49.836;6.632;2022-12-16T16:34:32;-5.80;99.90
39347;DHT22;26262;49.836;6.632;2022-12-16T16:37:18;-5.80;99.90
39347;DHT22;26262;49.836;6.632;2022-12-16T16:40:26;-5.80;99.90
39347;DHT22;26262;49.836;6.632;2022-12-16T16:43:11;-5.80;99.90
39347;DHT22;26262;49.836;6.632;2022-12-16T16:45:55;-5.80;99.90
39347;DHT22;26262;49.836;6.632;2022-12-16T16:48:40;-5.90;99.90
39347;DHT22;26262;49.836;6.632;2022-12-16T16:51:24;-5.90;99.90
39347;DHT22;26262;49.836;6.632;2022-12-16T16:54:08;-5.80;99.90
39347;DHT22;26262;49.836;6.632;2022-12-16T16:56:52;-5.80;99.90
39347;DHT22;26262;49.836;6.632;2022-12-16T16:59:36;-5.90;99.90
39347;DHT22;26262;49.836;6.632;2022-12-16T17:02:22;-5.90;99.90
39347;DHT22;26262;49.836;6.632;2022-12-16T17:05:07;-5.90;99.90
39347;DHT22;26262;49.836;6.632;2022-12-16T17:07:51;-6.00;99.90
39347;DHT22;26262;49.836;6.632;2022-12-16T17:10:36;-5.90;99.90
39347;DHT22;26262;49.836;6.632;2022-12-16T17:13:20;-6.00;99.90
39347;DHT22;26262;49.836;6.632;2022-12-16T17:16:05;-6.00;99.90
39347;DHT22;26262;49.836;6.632;2022-12-16T17:18:49;-6.00;99.90
39347;DHT22;26262;49.836;6.632;2022-12-16T17:21:33;-6.10;99.90
39347;DHT22;26262;49.836;6.632;2022-12-16T17:24:17;-6.10;99.90
39347;DHT22;26262;49.836;6.632;2022-12-16T17:27:19;-6.10;99.90
39347;DHT22;26262;49.836;6.632;2022-12-16T17:30:17;-6.10;99.90
39347;DHT22;26262;49.836;6.632;2022-12-16T17:33:02;-6.20;99.90
39347;DHT22;26262;49.836;6.632;2022-12-16T17:35:50;-6.20;99.90
39347;DHT22;26262;49.836;6.632;2022-12-16T17:38:38;-6.20;99.90
39347;DHT22;26262;49.836;6.632;2022-12-16T17:41:23;-6.20;99.90
39347;DHT22;26262;49.836;6.632;2022-12-16T17:44:07;-6.30;99.90
39347;DHT22;26262;49.836;6.632;2022-12-16T17:46:51;-6.30;99.90
39347;DHT22;26262;49.836;6.632;2022-12-16T17:49:34;-6.30;99.90
39347;DHT22;26262;49.836;6.632;2022-12-16T17:52:18;-6.30;99.90
39347;DHT22;26262;49.836;6.632;2022-12-16T17:55:03;-6.30;99.90
39347;DHT22;26262;49.836;6.632;2022-12-16T17:57:47;-6.40;99.90
39347;DHT22;26262;49.836;6.632;2022-12-16T18:00:31;-6.40;99.90
39347;DHT22;26262;49.836;6.632;2022-12-16T18:03:15;-6.40;99.90
39347;DHT22;26262;49.836;6.632;2022-12-16T18:05:59;-6.40;99.90
39347;DHT22;26262;49.836;6.632;2022-12-16T18:08:43;-6.50;99.90
39347;DHT22;26262;49.836;6.632;2022-12-16T18:11:27;-6.50;99.90
39347;DHT22;26262;49.836;6.632;2022-12-16T18:14:11;-6.50;99.90
39347;DHT22;26262;49.836;6.632;2022-12-16T18:16:55;-6.50;99.90
39347;DHT22;26262;49.836;6.632;2022-12-16T18:19:39;-6.50;99.90
39347;DHT22;26262;49.836;6.632;2022-12-16T18:22:23;-6.50;99.90
39347;DHT22;26262;49.836;6.632;2022-12-16T18:25:07;-6.50;99.90
39347;DHT22;26262;49.836;6.632;2022-12-16T18:27:51;-6.60;99.90
39347;DHT22;26262;49.836;6.632;2022-12-16T18:30:35;-6.60;99.90
39347;DHT22;26262;49.836;6.632;2022-12-16T18:33:19;-6.70;99.90
39347;DHT22;26262;49.836;6.632;2022-12-16T18:36:04;-6.70;99.90
39347;DHT22;26262;49.836;6.632;2022-12-16T18:38:48;-6.70;99.90
39347;DHT22;26262;49.836;6.632;2022-12-16T18:41:32;-6.70;99.90
39347;DHT22;26262;49.836;6.632;2022-12-16T18:44:16;-6.70;99.90
39347;DHT22;26262;49.836;6.632;2022-12-16T18:47:00;-6.70;99.90
39347;DHT22;26262;49.836;6.632;2022-12-16T18:49:44;-6.80;99.90
39347;DHT22;26262;49.836;6.632;2022-12-16T18:52:28;-6.80;99.90
39347;DHT22;26262;49.836;6.632;2022-12-16T18:55:13;-6.90;99.90